createdAt,value
2017-12-05T00:00:04.469Z,35.13
2017-12-05T00:02:32.584Z,38.00
2017-12-05T00:05:00.936Z,35.70
2017-12-05T00:07:29.327Z,29.20
2017-12-05T00:09:57.678Z,35.53
2017-12-05T00:12:26.031Z,37.43
2017-12-05T00:14:55.176Z,30.03
2017-12-05T00:17:23.527Z,29.00
2017-12-05T00:19:52.072Z,35.43
2017-12-05T00:22:20.415Z,46.73
2017-12-05T00:24:48.767Z,33.10
2017-12-05T00:27:17.118Z,31.83
2017-12-05T00:29:45.492Z,41.13
2017-12-05T00:32:13.864Z,49.20
2017-12-05T00:34:42.208Z,48.20
2017-12-05T00:37:10.603Z,43.20
2017-12-05T00:39:38.950Z,45.40
2017-12-05T00:42:07.300Z,50.70
2017-12-05T00:44:35.677Z,37.97
2017-12-05T00:47:04.023Z,35.03
2017-12-05T00:49:32.411Z,47.17
2017-12-05T00:52:00.768Z,40.73
2017-12-05T00:54:29.110Z,36.77
2017-12-05T00:56:57.455Z,47.67
2017-12-05T00:59:25.848Z,44.03
2017-12-05T01:01:54.202Z,57.70
2017-12-05T01:04:22.550Z,52.33
2017-12-05T01:06:50.962Z,45.60
2017-12-05T01:09:19.310Z,52.77
2017-12-05T01:11:47.655Z,37.23
2017-12-05T01:14:16.006Z,37.47
2017-12-05T01:16:44.355Z,44.60
2017-12-05T01:19:12.728Z,47.17
2017-12-05T01:21:41.110Z,45.53
2017-12-05T01:24:09.455Z,42.30
2017-12-05T01:26:37.851Z,46.20
2017-12-05T01:29:06.208Z,35.37
2017-12-05T01:31:34.558Z,40.87
2017-12-05T01:34:02.948Z,36.70
2017-12-05T01:36:31.307Z,35.78
2017-12-05T01:38:59.658Z,39.10
2017-12-05T01:41:28.015Z,34.10
2017-12-05T01:43:56.358Z,39.30
2017-12-05T01:46:24.736Z,36.93
2017-12-05T01:48:53.107Z,45.60
2017-12-05T01:51:21.459Z,34.40
2017-12-05T01:53:49.809Z,36.13
2017-12-05T01:56:18.161Z,34.90
2017-12-05T01:58:46.503Z,33.60
2017-12-05T02:01:14.886Z,43.50
2017-12-05T02:03:43.240Z,50.60
2017-12-05T02:06:11.608Z,39.27
2017-12-05T02:08:39.985Z,44.43
2017-12-05T02:11:08.359Z,47.50
2017-12-05T02:13:36.699Z,34.30
2017-12-05T02:16:05.050Z,46.80
2017-12-05T02:18:33.439Z,35.30
2017-12-05T02:21:01.793Z,44.57
2017-12-05T02:23:30.143Z,36.33
2017-12-05T02:25:58.486Z,47.67
2017-12-05T02:28:26.839Z,39.20
2017-12-05T02:30:55.238Z,38.67
2017-12-05T02:33:23.824Z,46.33
2017-12-05T02:35:52.172Z,34.93
2017-12-05T02:38:20.536Z,30.88
2017-12-05T02:41:00.627Z,24.80
2017-12-05T02:43:28.986Z,21.73
2017-12-05T02:45:57.351Z,29.37
2017-12-05T02:48:25.702Z,27.23
2017-12-05T02:50:54.067Z,28.92
2017-12-05T02:53:22.415Z,33.40
2017-12-05T02:55:50.897Z,28.37
2017-12-05T02:58:19.565Z,24.58
2017-12-05T03:00:48.247Z,24.63
2017-12-05T03:03:16.930Z,27.73
2017-12-05T03:05:45.408Z,34.20
2017-12-05T03:08:13.758Z,30.02
2017-12-05T03:10:42.143Z,25.75
2017-12-05T03:13:10.483Z,26.67
2017-12-05T03:15:38.834Z,28.25
2017-12-05T03:18:07.211Z,25.65
2017-12-05T03:20:35.574Z,33.88
2017-12-05T03:23:03.965Z,31.62
2017-12-05T03:25:32.348Z,36.78
2017-12-05T03:28:00.702Z,39.20
2017-12-05T03:30:29.051Z,27.77
2017-12-05T03:32:57.406Z,36.57
2017-12-05T03:35:25.779Z,27.60
2017-12-05T03:37:54.159Z,33.53
2017-12-05T03:40:22.521Z,30.35
2017-12-05T03:42:50.886Z,40.42
2017-12-05T03:45:19.215Z,30.93
2017-12-05T03:47:47.566Z,34.92
2017-12-05T03:50:16.046Z,27.43
2017-12-05T03:52:44.443Z,26.53
2017-12-05T03:55:12.803Z,36.97
2017-12-05T03:57:41.139Z,28.93
2017-12-05T04:00:30.924Z,25.40
2017-12-05T04:02:59.275Z,29.42
2017-12-05T04:05:27.651Z,30.70
2017-12-05T04:07:56.076Z,50.97
2017-12-05T04:10:24.420Z,28.83
2017-12-05T04:12:52.815Z,30.52
2017-12-05T04:15:21.180Z,32.55
2017-12-05T04:17:49.530Z,33.20
2017-12-05T04:20:17.905Z,31.07
2017-12-05T04:22:46.259Z,26.98
2017-12-05T04:25:14.620Z,26.87
2017-12-05T04:27:43.007Z,34.35
2017-12-05T04:30:11.395Z,31.27
2017-12-05T04:32:39.743Z,45.40
2017-12-05T04:35:08.095Z,35.88
2017-12-05T04:37:36.527Z,34.00
2017-12-05T04:40:04.899Z,32.23
2017-12-05T04:42:33.276Z,34.30
2017-12-05T04:45:01.795Z,29.35
2017-12-05T04:47:30.147Z,37.80
2017-12-05T04:49:58.505Z,35.95
2017-12-05T04:52:27.755Z,31.90
2017-12-05T04:54:56.114Z,38.27
2017-12-05T04:57:24.480Z,32.55
2017-12-05T04:59:52.869Z,33.72
2017-12-05T05:02:21.229Z,31.25
2017-12-05T05:04:49.616Z,24.60
2017-12-05T05:07:17.981Z,36.05
2017-12-05T05:09:46.323Z,32.83
2017-12-05T05:12:14.710Z,39.22
2017-12-05T05:14:43.082Z,34.20
2017-12-05T05:17:11.474Z,33.88
2017-12-05T05:19:40.658Z,41.22
2017-12-05T05:22:09.006Z,30.80
2017-12-05T05:24:37.405Z,31.75
2017-12-05T05:27:05.760Z,32.30
2017-12-05T05:29:34.117Z,28.83
2017-12-05T05:32:02.494Z,31.10
2017-12-05T05:34:30.841Z,31.03
2017-12-05T05:36:59.196Z,27.85
2017-12-05T05:39:27.570Z,29.93
2017-12-05T05:41:55.919Z,26.93
2017-12-05T05:44:24.319Z,30.50
2017-12-05T05:46:52.668Z,38.27
2017-12-05T05:49:21.030Z,23.02
2017-12-05T05:51:49.579Z,30.42
2017-12-05T05:54:17.932Z,29.33
2017-12-05T05:56:46.270Z,21.47
2017-12-05T05:59:14.655Z,22.67
2017-12-05T06:01:43.014Z,34.38
2017-12-05T06:04:11.403Z,33.00
2017-12-05T06:06:39.774Z,23.77
2017-12-05T06:09:08.152Z,26.10
2017-12-05T06:11:36.502Z,35.13
2017-12-05T06:14:04.846Z,32.40
2017-12-05T06:16:36.248Z,26.33
2017-12-05T06:19:04.593Z,27.93
2017-12-05T06:21:33.227Z,26.03
2017-12-05T06:24:01.606Z,25.20
2017-12-05T06:26:31.379Z,21.50
2017-12-05T06:28:59.806Z,24.50
2017-12-05T06:31:29.333Z,24.33
2017-12-05T06:34:01.031Z,23.70
2017-12-05T06:36:30.366Z,29.83
2017-12-05T06:38:58.741Z,20.70
2017-12-05T06:41:29.804Z,19.77
2017-12-05T06:43:58.178Z,23.00
2017-12-05T06:46:26.591Z,21.43
2017-12-05T06:48:55.965Z,27.03
2017-12-05T06:51:24.321Z,25.07
2017-12-05T06:53:52.680Z,18.93
2017-12-05T06:56:21.027Z,18.90
2017-12-05T06:58:49.442Z,23.37
2017-12-05T07:01:17.783Z,15.73
2017-12-05T07:03:46.125Z,13.67
2017-12-05T07:06:14.475Z,16.00
2017-12-05T07:08:42.814Z,11.90
2017-12-05T07:11:11.180Z,16.67
2017-12-05T07:13:40.598Z,16.17
2017-12-05T07:16:08.972Z,12.90
2017-12-05T07:18:37.329Z,16.05
2017-12-05T07:21:05.671Z,11.10
2017-12-05T07:23:34.015Z,10.13
2017-12-05T07:26:02.367Z,12.27
2017-12-05T07:28:30.743Z,11.20
2017-12-05T07:30:59.088Z,16.00
2017-12-05T07:33:27.451Z,16.55
2017-12-05T07:35:55.810Z,16.17
2017-12-05T07:38:24.151Z,15.33
2017-12-05T07:40:52.556Z,18.40
2017-12-05T07:43:20.903Z,20.57
2017-12-05T07:45:49.239Z,13.90
2017-12-05T07:48:17.582Z,13.97
2017-12-05T07:50:45.932Z,14.50
2017-12-05T07:53:14.330Z,17.60
2017-12-05T07:55:42.688Z,16.40
2017-12-05T07:58:11.035Z,17.47
2017-12-05T08:00:39.388Z,18.60
2017-12-05T08:03:07.728Z,15.23
2017-12-05T08:05:36.212Z,11.23
2017-12-05T08:08:04.555Z,11.80
2017-12-05T08:10:32.896Z,10.30
2017-12-05T08:13:01.247Z,12.88
2017-12-05T08:15:29.585Z,9.17
2017-12-05T08:17:57.966Z,17.48
2017-12-05T08:20:26.307Z,18.87
2017-12-05T08:22:54.655Z,12.27
2017-12-05T08:25:22.999Z,13.93
2017-12-05T08:27:51.339Z,14.80
2017-12-05T08:30:19.727Z,13.07
2017-12-05T08:32:48.067Z,15.03
2017-12-05T08:35:16.417Z,17.27
2017-12-05T08:37:44.767Z,16.67
2017-12-05T08:40:13.131Z,17.73
2017-12-05T08:42:41.487Z,16.97
2017-12-05T08:45:09.827Z,17.17
2017-12-05T08:47:38.199Z,14.47
2017-12-05T08:50:06.547Z,16.23
2017-12-05T08:52:34.890Z,15.17
2017-12-05T08:55:03.246Z,18.70
2017-12-05T08:57:31.621Z,13.60
2017-12-05T08:59:59.959Z,14.17
2017-12-05T09:02:28.315Z,13.00
2017-12-05T09:04:56.687Z,9.30
2017-12-05T09:07:25.032Z,14.30
2017-12-05T09:09:53.375Z,14.63
2017-12-05T09:12:21.758Z,10.40
2017-12-05T09:14:50.105Z,9.43
2017-12-05T09:17:18.442Z,11.43
2017-12-05T09:19:46.788Z,12.30
2017-12-05T09:22:15.125Z,12.60
2017-12-05T09:24:43.520Z,13.77
2017-12-05T09:27:11.856Z,8.77
2017-12-05T09:29:40.208Z,14.70
2017-12-05T09:32:08.540Z,11.73
2017-12-05T09:34:36.895Z,14.13
2017-12-05T09:37:05.252Z,13.63
2017-12-05T09:39:33.592Z,14.57
2017-12-05T09:42:01.959Z,16.37
2017-12-05T09:44:30.312Z,18.13
2017-12-05T09:46:58.671Z,16.83
2017-12-05T09:49:27.017Z,19.97
2017-12-05T09:51:55.418Z,15.35
2017-12-05T09:54:23.769Z,17.58
2017-12-05T09:56:52.120Z,20.67
2017-12-05T09:59:20.466Z,22.33
2017-12-05T10:01:48.823Z,16.45
2017-12-05T10:04:17.179Z,17.80
2017-12-05T10:06:45.539Z,18.20
2017-12-05T10:09:13.901Z,19.00
2017-12-05T10:11:42.276Z,16.07
2017-12-05T10:14:10.619Z,16.10
2017-12-05T10:16:38.963Z,13.83
2017-12-05T10:19:07.317Z,16.50
2017-12-05T10:21:35.660Z,18.87
2017-12-05T10:24:04.036Z,15.47
2017-12-05T10:26:32.384Z,12.17
2017-12-05T10:29:00.747Z,15.35
2017-12-05T10:31:29.092Z,16.83
2017-12-05T10:33:57.440Z,14.13
2017-12-05T10:36:25.779Z,18.13
2017-12-05T10:38:54.139Z,18.00
2017-12-05T10:41:22.501Z,18.00
2017-12-05T10:43:50.865Z,18.92
2017-12-05T10:46:19.205Z,18.60
2017-12-05T10:48:47.568Z,18.30
2017-12-05T10:51:15.959Z,19.35
2017-12-05T10:53:44.323Z,21.15
2017-12-05T10:56:12.680Z,24.15
2017-12-05T10:58:41.080Z,25.35
2017-12-05T11:01:09.423Z,23.93
2017-12-05T11:03:37.784Z,26.30
2017-12-05T11:06:06.152Z,23.83
2017-12-05T11:08:34.500Z,24.77
2017-12-05T11:11:02.854Z,21.93
2017-12-05T11:13:31.211Z,25.03
2017-12-05T11:15:59.568Z,22.95
2017-12-05T11:18:27.916Z,28.10
2017-12-05T11:20:56.280Z,31.43
2017-12-05T11:23:24.627Z,27.20
2017-12-05T11:25:52.979Z,23.90
2017-12-05T11:28:21.325Z,29.00
2017-12-05T11:30:49.749Z,27.63
2017-12-05T11:33:18.056Z,35.00
2017-12-05T11:35:46.435Z,26.87
2017-12-05T11:38:14.770Z,19.70
2017-12-05T11:40:43.142Z,28.93
2017-12-05T11:43:11.500Z,24.83
2017-12-05T11:45:39.849Z,26.37
2017-12-05T11:48:08.240Z,26.37
2017-12-05T11:50:36.593Z,26.53
2017-12-05T11:53:04.936Z,24.83
2017-12-05T11:55:33.332Z,24.00
2017-12-05T11:58:01.683Z,23.53
2017-12-05T12:00:30.036Z,24.53
2017-12-05T12:02:58.420Z,25.37
2017-12-05T12:05:26.800Z,31.93
2017-12-05T12:07:55.138Z,27.10
2017-12-05T12:10:23.491Z,31.80
2017-12-05T12:12:51.844Z,24.50
2017-12-05T12:15:20.256Z,33.40
2017-12-05T12:17:48.664Z,31.20
2017-12-05T12:20:17.058Z,34.83
2017-12-05T12:22:46.603Z,28.70
2017-12-05T12:25:14.980Z,34.67
2017-12-05T12:27:43.369Z,32.60
2017-12-05T12:30:11.805Z,29.80
2017-12-05T12:32:40.168Z,28.00
2017-12-05T12:35:08.539Z,26.73
2017-12-05T12:37:36.974Z,24.70
2017-12-05T12:40:05.315Z,31.17
2017-12-05T12:42:33.823Z,26.20
2017-12-05T12:45:02.178Z,28.03
2017-12-05T12:47:30.519Z,29.07
2017-12-05T12:49:58.877Z,31.33
2017-12-05T12:52:27.273Z,26.53
2017-12-05T12:54:55.619Z,25.17
2017-12-05T12:57:23.974Z,28.83
2017-12-05T12:59:52.347Z,24.07
2017-12-05T13:02:20.700Z,42.87
2017-12-05T13:04:49.047Z,24.57
2017-12-05T13:07:17.432Z,27.90
2017-12-05T13:09:45.782Z,27.40
2017-12-05T13:12:14.167Z,28.60
2017-12-05T13:14:42.543Z,28.40
2017-12-05T13:17:10.883Z,27.53
2017-12-05T13:19:39.235Z,25.10
2017-12-05T13:22:07.589Z,32.37
2017-12-05T13:24:35.956Z,26.60
2017-12-05T13:27:04.354Z,28.30
2017-12-05T13:29:32.699Z,27.57
2017-12-05T13:32:01.043Z,36.73
2017-12-05T13:34:29.391Z,38.00
2017-12-05T13:36:57.740Z,27.23
2017-12-05T13:39:26.114Z,27.80
2017-12-05T13:41:54.467Z,27.23
2017-12-05T13:44:22.820Z,27.00
2017-12-05T13:46:51.174Z,30.97
2017-12-05T13:49:19.558Z,29.63
2017-12-05T13:51:47.903Z,28.47
2017-12-05T13:54:16.248Z,28.37
2017-12-05T13:56:44.600Z,34.60
2017-12-05T13:59:12.957Z,32.30
2017-12-05T14:01:41.349Z,25.90
2017-12-05T14:04:09.740Z,35.47
2017-12-05T14:06:38.090Z,25.60
2017-12-05T14:09:06.439Z,24.90
2017-12-05T14:11:34.788Z,25.13
2017-12-05T14:14:03.170Z,27.13
2017-12-05T14:16:31.520Z,24.00
2017-12-05T14:18:59.928Z,23.00
2017-12-05T14:21:28.277Z,25.33
2017-12-05T14:23:56.683Z,26.83
2017-12-05T14:26:25.026Z,27.40
2017-12-05T14:28:53.399Z,25.50
2017-12-05T14:31:21.776Z,26.60
2017-12-05T14:33:50.131Z,26.80
2017-12-05T14:36:18.474Z,25.43
2017-12-05T14:38:46.828Z,22.23
2017-12-05T14:41:15.207Z,23.23
2017-12-05T14:43:43.579Z,25.57
2017-12-05T14:46:11.941Z,24.53
2017-12-05T14:48:40.331Z,23.67
2017-12-05T14:51:08.681Z,24.03
2017-12-05T14:53:37.036Z,26.70
2017-12-05T14:56:05.427Z,27.90
2017-12-05T14:58:33.773Z,28.63
2017-12-05T15:01:02.147Z,29.60
2017-12-05T15:03:30.511Z,24.13
2017-12-05T15:05:58.865Z,24.40
2017-12-05T15:08:27.217Z,30.13
2017-12-05T15:10:55.556Z,25.10
2017-12-05T15:13:23.944Z,33.83
2017-12-05T15:15:52.289Z,29.50
2017-12-05T15:18:20.952Z,32.10
2017-12-05T15:23:45.049Z,26.83
2017-12-05T15:26:13.431Z,24.00
2017-12-05T15:28:41.792Z,24.13
2017-12-05T15:31:10.147Z,20.50
2017-12-05T15:33:38.506Z,29.17
2017-12-05T15:36:06.986Z,23.47
2017-12-05T15:38:35.327Z,27.33
2017-12-05T15:41:03.675Z,29.80
2017-12-05T15:43:32.036Z,24.17
2017-12-05T15:46:00.397Z,26.47
2017-12-05T15:48:28.749Z,23.43
2017-12-05T15:50:57.208Z,21.20
2017-12-05T15:53:25.580Z,23.20
2017-12-05T15:55:53.924Z,24.60
2017-12-05T15:58:22.271Z,25.37
2017-12-05T16:00:50.619Z,25.13
2017-12-05T16:03:18.992Z,28.57
2017-12-05T16:05:47.375Z,24.90
2017-12-05T16:08:15.728Z,27.50
2017-12-05T16:10:44.111Z,27.90
2017-12-05T16:13:12.455Z,25.67
2017-12-05T16:15:40.800Z,28.60
2017-12-05T16:18:09.151Z,28.50
2017-12-05T16:20:37.499Z,23.90
2017-12-05T16:23:05.900Z,22.77
2017-12-05T16:25:34.293Z,25.77
2017-12-05T16:28:02.636Z,25.23
2017-12-05T16:30:30.987Z,34.93
2017-12-05T16:32:59.365Z,114.93
2017-12-05T16:35:27.717Z,25.07
2017-12-05T16:37:56.111Z,22.17
2017-12-05T16:40:24.587Z,20.83
2017-12-05T16:42:52.947Z,20.67
2017-12-05T16:45:21.298Z,23.73
2017-12-05T16:47:49.743Z,25.00
2017-12-05T16:50:18.093Z,23.63
2017-12-05T16:52:46.459Z,26.93
2017-12-05T16:55:14.835Z,23.23
2017-12-05T16:57:43.183Z,27.20
2017-12-05T17:00:11.566Z,22.00
2017-12-05T17:02:39.911Z,21.93
2017-12-05T17:05:08.261Z,24.73
2017-12-05T17:07:37.048Z,27.43
2017-12-05T17:10:05.395Z,25.60
2017-12-05T17:12:33.743Z,25.60
2017-12-05T17:15:02.087Z,25.67
2017-12-05T17:17:30.495Z,22.93
2017-12-05T17:19:58.852Z,29.73
2017-12-05T17:22:27.206Z,22.90
2017-12-05T17:24:55.555Z,26.73
2017-12-05T17:27:23.904Z,26.27
2017-12-05T17:29:52.337Z,26.80
2017-12-05T17:32:20.699Z,25.83
2017-12-05T17:34:49.073Z,22.60
2017-12-05T17:37:17.419Z,28.63
2017-12-05T17:39:45.771Z,26.90
2017-12-05T17:42:14.171Z,32.67
2017-12-05T17:44:42.518Z,21.10
2017-12-05T17:47:10.903Z,24.73
2017-12-05T17:49:39.246Z,29.77
2017-12-05T17:52:07.604Z,24.00
2017-12-05T17:54:35.985Z,24.53
2017-12-05T17:57:04.343Z,24.47
2017-12-05T17:59:32.762Z,32.50
2017-12-05T18:02:01.112Z,24.60
2017-12-05T18:04:29.460Z,28.47
2017-12-05T18:06:57.892Z,23.87
2017-12-05T18:09:26.240Z,24.10
2017-12-05T18:11:54.591Z,23.87
2017-12-05T18:14:22.975Z,22.13
2017-12-05T18:16:51.331Z,26.20
2017-12-05T18:19:19.675Z,38.40
2017-12-05T18:21:48.019Z,30.17
2017-12-05T18:24:16.368Z,24.70
2017-12-05T18:26:44.810Z,27.73
2017-12-05T18:29:13.131Z,32.50
2017-12-05T18:31:41.483Z,23.50
2017-12-05T18:34:09.851Z,24.77
2017-12-05T18:36:38.187Z,22.13
2017-12-05T18:39:06.564Z,23.17
2017-12-05T18:41:34.910Z,30.87
2017-12-05T18:44:04.221Z,29.20
2017-12-05T18:46:32.569Z,28.73
2017-12-05T18:49:00.967Z,27.30
2017-12-05T18:51:29.355Z,30.40
2017-12-05T18:53:57.706Z,33.77
2017-12-05T18:56:26.143Z,32.23
2017-12-05T18:58:54.524Z,26.83
2017-12-05T19:01:22.875Z,26.73
2017-12-05T19:03:51.271Z,28.50
2017-12-05T19:06:19.628Z,26.40
2017-12-05T19:08:47.976Z,27.87
2017-12-05T19:11:16.804Z,35.37
2017-12-05T19:13:45.215Z,25.73
2017-12-05T19:16:13.587Z,37.47
2017-12-05T19:18:41.936Z,34.07
2017-12-05T19:21:10.292Z,30.13
2017-12-05T19:23:38.647Z,45.80
2017-12-05T19:26:07.003Z,40.00
2017-12-05T19:28:35.404Z,36.03
2017-12-05T19:31:03.750Z,35.07
2017-12-05T19:33:32.182Z,40.87
2017-12-05T19:36:00.555Z,39.03
2017-12-05T19:38:28.909Z,48.27
2017-12-05T19:40:57.296Z,48.30
2017-12-05T19:43:26.483Z,63.73
2017-12-05T19:45:54.829Z,48.30
2017-12-05T19:48:23.187Z,34.47
2017-12-05T19:50:51.566Z,30.87
2017-12-05T19:53:19.994Z,27.77
2017-12-05T19:55:48.399Z,35.03
2017-12-05T19:58:16.779Z,28.60
2017-12-05T20:00:45.160Z,32.30
2017-12-05T20:03:13.529Z,34.70
2017-12-05T20:05:41.937Z,65.00
2017-12-05T20:08:10.311Z,30.40
2017-12-05T20:10:39.622Z,37.77
2017-12-05T20:13:07.968Z,40.50
2017-12-05T20:15:36.407Z,34.80
2017-12-05T20:18:04.771Z,106.37
2017-12-05T20:20:33.121Z,37.50
2017-12-05T20:23:01.465Z,46.13
2017-12-05T20:25:29.939Z,41.57
2017-12-05T20:27:58.428Z,66.57
2017-12-05T20:30:26.791Z,103.53
2017-12-05T20:32:55.142Z,87.47
2017-12-05T20:35:23.503Z,27.37
2017-12-05T20:37:51.976Z,33.47
2017-12-05T20:40:20.450Z,34.50
2017-12-05T20:42:48.832Z,30.93
2017-12-05T20:45:17.195Z,33.83
2017-12-05T20:47:45.562Z,30.83
2017-12-05T20:50:13.673Z,28.03
2017-12-05T20:52:41.747Z,25.77
2017-12-05T20:55:14.719Z,30.50
2017-12-05T20:57:42.817Z,24.87
2017-12-05T21:00:10.883Z,25.13
2017-12-05T21:02:38.952Z,22.90
2017-12-05T21:05:07.022Z,27.90
2017-12-05T21:07:35.115Z,27.33
2017-12-05T21:10:03.313Z,23.70
2017-12-05T21:12:31.375Z,20.13
2017-12-05T21:14:59.448Z,22.73
2017-12-05T21:17:27.578Z,23.10
2017-12-05T21:19:55.709Z,25.63
2017-12-05T21:22:23.779Z,20.90
2017-12-05T21:24:51.852Z,17.03
2017-12-05T21:27:20.325Z,19.90
2017-12-05T21:29:48.423Z,19.90
2017-12-05T21:32:16.707Z,26.53
2017-12-05T21:34:44.773Z,18.07
2017-12-05T21:37:12.851Z,23.30
2017-12-05T21:39:40.960Z,22.92
2017-12-05T21:42:09.076Z,21.40
2017-12-05T21:44:37.141Z,23.33
2017-12-05T21:47:05.207Z,25.70
2017-12-05T21:49:33.272Z,20.67
2017-12-05T21:52:01.339Z,25.40
2017-12-05T21:54:29.619Z,24.52
2017-12-05T21:56:57.675Z,16.20
2017-12-05T21:59:25.747Z,19.43
2017-12-05T22:01:53.843Z,18.60
2017-12-05T22:04:21.927Z,14.80
2017-12-05T22:06:49.994Z,17.67
2017-12-05T22:09:18.500Z,21.53
2017-12-05T22:11:46.868Z,21.73
2017-12-05T22:14:15.219Z,18.57
2017-12-05T22:16:43.591Z,13.13
2017-12-05T22:19:11.932Z,14.50
2017-12-05T22:21:40.327Z,11.90
2017-12-05T22:24:08.672Z,15.13
2017-12-05T22:26:37.052Z,15.70
2017-12-05T22:29:05.429Z,14.73
2017-12-05T22:31:33.776Z,17.13
2017-12-05T22:34:08.074Z,21.73
2017-12-05T22:36:36.427Z,14.83
2017-12-05T22:39:04.810Z,21.93
2017-12-05T22:41:33.169Z,19.30
2017-12-05T22:44:01.511Z,18.67
2017-12-05T22:46:29.859Z,15.27
2017-12-05T22:48:58.334Z,15.77
2017-12-05T22:51:26.683Z,16.17
2017-12-05T22:53:55.040Z,19.13
2017-12-05T22:56:23.422Z,14.63
2017-12-05T22:58:51.786Z,16.70
2017-12-05T23:01:20.184Z,14.00
2017-12-05T23:03:48.551Z,18.77
2017-12-05T23:06:16.900Z,11.80
2017-12-05T23:08:45.260Z,22.23
2017-12-05T23:11:13.639Z,23.45
2017-12-05T23:13:42.025Z,51.30
2017-12-05T23:16:10.395Z,24.95
2017-12-05T23:18:38.784Z,17.23
2017-12-05T23:21:07.151Z,34.58
2017-12-05T23:23:35.519Z,18.13
2017-12-05T23:26:03.907Z,23.90
2017-12-05T23:28:32.267Z,18.25
2017-12-05T23:31:00.676Z,17.25
2017-12-05T23:33:29.038Z,16.15
2017-12-05T23:35:57.527Z,15.00
2017-12-05T23:38:25.865Z,15.40
2017-12-05T23:40:54.244Z,17.33
2017-12-05T23:43:22.600Z,18.55
2017-12-05T23:45:50.959Z,16.77
2017-12-05T23:48:19.344Z,28.97
2017-12-05T23:50:47.691Z,19.60
2017-12-05T23:53:16.198Z,25.58
2017-12-05T23:55:44.588Z,18.42
2017-12-05T23:58:12.939Z,25.37
